ADDS METAR Data INFO
IDs: Format: Raw Decoded Include TAF

Data at: 1337 UTC 23 Jun 2018

KBYI 231253Z AUTO 26015G19KT 10SM CLR 17/06 A2996 RMK AO2 SLP102 T01670056
KBYI 231153Z AUTO 27012G22KT 10SM CLR 17/08 A2994 RMK AO2 SLP092 T01720078 10189 20144 53008
KBYI 231053Z AUTO 27015G22KT 10SM SCT095 18/08 A2993 RMK AO2 SLP087 T01830083
KBYI 230953Z AUTO 27016G25KT 10SM CLR 19/08 A2992 RMK AO2 SLP083 T01890083
KBYI 230853Z AUTO 26014G21KT 10SM CLR 19/08 A2991 RMK AO2 SLP081 T01890078 55000
KBYI 230753Z AUTO 28006KT 10SM CLR 17/08 A2991 RMK AO2 SLP084 T01670078
KBYI 230653Z AUTO 21008KT 10SM CLR 17/08 A2991 RMK AO2 SLP084 T01670083 402830122
KBYI 230553Z AUTO 21006KT 10SM CLR 16/09 A2991 RMK AO2 SLP088 T01610094 10283 20161 58004
KBYI 230453Z AUTO 20006KT 10SM CLR 18/09 A2993 RMK AO2 SLP092 T01830094
KBYI 230353Z AUTO 19006KT 10SM CLR 18/10 A2993 RMK AO2 SLP094 T01830100
KBYI 230253Z AUTO 25005KT 10SM CLR 23/07 A2993 RMK AO2 SLP091 T02330072 56016
KBYI 230153Z AUTO 24005KT 10SM CLR 26/07 A2994 RMK AO2 SLP094 T02560072
KBYI 230053Z AUTO 26004KT 10SM CLR 27/06 A2996 RMK AO2 SLP101 T02670061
KBYI 222353Z AUTO 29006KT 10SM CLR 28/06 A2998 RMK AO2 SLP109 T02830056 10283 20239 56018
KBYI 222253Z AUTO 28006G15KT 10SM CLR 28/04 A3000 RMK AO2 SLP113 T02830044
KBYI 222153Z AUTO 26011G19KT 10SM CLR 28/06 A3002 RMK AO2 SLP121 T02780061
KBYI 222053Z AUTO 25010G19KT 10SM CLR 27/06 A3004 RMK AO2 SLP130 T02720061 58017
KBYI 221953Z AUTO 28005KT 10SM CLR 26/07 A3006 RMK AO2 SLP137 T02610072
KBYI 221853Z AUTO VRB05KT 10SM CLR 26/09 A3008 RMK AO2 SLP143 T02560094
KBYI 221753Z AUTO 28008KT 10SM CLR 24/08 A3010 RMK AO2 SLP150 T02440083 10244 20122 58010
KBYI 221653Z AUTO VRB06KT 10SM CLR 23/11 A3012 RMK AO2 SLP157 T02280106
KBYI 221553Z AUTO 25009KT 10SM CLR 22/11 A3013 RMK AO2 SLP160 T02170106
KBYI 221453Z AUTO 25006KT 10SM CLR 20/10 A3013 RMK AO2 SLP160 T02000100 51007
KBYI 221353Z AUTO VRB03KT 10SM CLR 17/09 A3013 RMK AO2 SLP160 T01720094
KBYI 221253Z AUTO 00000KT 10SM CLR 15/09 A3012 RMK AO2 SLP160 T01500089
KBYI 221153Z AUTO 00000KT 10SM CLR 14/08 A3010 RMK AO2 SLP154 T01390083 10178 20139 53016
KBYI 221053Z AUTO 29005KT 10SM CLR 16/09 A3008 RMK AO2 SLP144 T01560089
KBYI 220953Z AUTO 26010KT 10SM CLR 16/08 A3006 RMK AO2 SLP137 T01610083
KBYI 220853Z AUTO 26012KT 10SM CLR 16/09 A3005 RMK AO2 SLP134 T01610089 57004
KBYI 220753Z AUTO 26011G18KT 10SM CLR 17/09 A3006 RMK AO2 SLP135 T01670089
KBYI 220653Z AUTO 26012KT 10SM CLR 17/09 A3006 RMK AO2 SLP138 T01720089 402780117
KBYI 220553Z AUTO 25012KT 10SM CLR 18/09 A3007 RMK AO2 SLP141 T01780089 10272 20178 50009
KBYI 220453Z AUTO 26011KT 10SM CLR 19/08 A3007 RMK AO2 SLP142 T01890083
KBYI 220353Z AUTO 26008KT 10SM CLR 21/08 A3005 RMK AO2 SLP133 T02110078
KBYI 220253Z AUTO 28008G17KT 10SM CLR 23/08 A3004 RMK AO2 SLP129 T02280078 53006
KBYI 220153Z AUTO 29009G16KT 10SM CLR 25/07 A3002 RMK AO2 SLP124 T02500067